sensor_id;sensor_type;location;lat;lon;timestamp;P1;durP1;ratioP1;P2;durP2;ratioP2
68025;SDS011;54819;48.030;14.710;2023-03-23T00:01:09;10.30;;;4.30;;
68025;SDS011;54819;48.030;14.710;2023-03-23T00:03:39;12.50;;;4.50;;
68025;SDS011;54819;48.030;14.710;2023-03-23T00:06:06;12.10;;;4.50;;
68025;SDS011;54819;48.030;14.710;2023-03-23T00:08:34;11.80;;;4.90;;
68025;SDS011;54819;48.030;14.710;2023-03-23T00:11:15;11.60;;;4.50;;
68025;SDS011;54819;48.030;14.710;2023-03-23T00:13:45;11.90;;;4.10;;
68025;SDS011;54819;48.030;14.710;2023-03-23T00:16:13;11.40;;;5.00;;
68025;SDS011;54819;48.030;14.710;2023-03-23T00:18:49;10.90;;;4.80;;
68025;SDS011;54819;48.030;14.710;2023-03-23T00:21:20;10.40;;;4.70;;
68025;SDS011;54819;48.030;14.710;2023-03-23T00:23:51;14.20;;;5.00;;
68025;SDS011;54819;48.030;14.710;2023-03-23T00:26:17;10.30;;;4.30;;
68025;SDS011;54819;48.030;14.710;2023-03-23T00:28:44;10.10;;;4.00;;
68025;SDS011;54819;48.030;14.710;2023-03-23T00:33:39;6.00;;;2.50;;
68025;SDS011;54819;48.030;14.710;2023-03-23T00:36:10;5.20;;;2.60;;
68025;SDS011;54819;48.030;14.710;2023-03-23T00:38:38;4.70;;;2.40;;
68025;SDS011;54819;48.030;14.710;2023-03-23T00:41:06;4.30;;;2.20;;
68025;SDS011;54819;48.030;14.710;2023-03-23T00:43:32;8.10;;;2.60;;
68025;SDS011;54819;48.030;14.710;2023-03-23T00:46:01;5.20;;;2.20;;
68025;SDS011;54819;48.030;14.710;2023-03-23T00:48:33;5.80;;;2.50;;
68025;SDS011;54819;48.030;14.710;2023-03-23T00:51:02;6.30;;;2.60;;
68025;SDS011;54819;48.030;14.710;2023-03-23T00:53:35;7.10;;;3.10;;
68025;SDS011;54819;48.030;14.710;2023-03-23T00:56:01;6.50;;;2.60;;
68025;SDS011;54819;48.030;14.710;2023-03-23T00:58:27;5.40;;;2.30;;
68025;SDS011;54819;48.030;14.710;2023-03-23T01:00:53;6.00;;;2.30;;
68025;SDS011;54819;48.030;14.710;2023-03-23T01:03:22;5.60;;;2.50;;
68025;SDS011;54819;48.030;14.710;2023-03-23T01:05:51;6.00;;;2.60;;
68025;SDS011;54819;48.030;14.710;2023-03-23T01:08:18;5.60;;;2.70;;
68025;SDS011;54819;48.030;14.710;2023-03-23T01:10:45;8.20;;;2.90;;
68025;SDS011;54819;48.030;14.710;2023-03-23T01:13:12;5.20;;;2.80;;
68025;SDS011;54819;48.030;14.710;2023-03-23T01:15:38;6.70;;;3.00;;
68025;SDS011;54819;48.030;14.710;2023-03-23T01:18:05;5.90;;;2.60;;
68025;SDS011;54819;48.030;14.710;2023-03-23T01:20:31;4.70;;;2.30;;
68025;SDS011;54819;48.030;14.710;2023-03-23T01:22:58;6.40;;;2.80;;
68025;SDS011;54819;48.030;14.710;2023-03-23T01:25:27;6.00;;;2.80;;
68025;SDS011;54819;48.030;14.710;2023-03-23T01:27:55;7.80;;;3.60;;
68025;SDS011;54819;48.030;14.710;2023-03-23T01:30:22;12.00;;;4.80;;
68025;SDS011;54819;48.030;14.710;2023-03-23T01:32:49;9.80;;;5.00;;
68025;SDS011;54819;48.030;14.710;2023-03-23T01:35:15;10.60;;;5.10;;
68025;SDS011;54819;48.030;14.710;2023-03-23T01:37:42;10.10;;;5.10;;
68025;SDS011;54819;48.030;14.710;2023-03-23T01:40:08;12.80;;;6.40;;
68025;SDS011;54819;48.030;14.710;2023-03-23T01:42:37;9.70;;;4.90;;
68025;SDS011;54819;48.030;14.710;2023-03-23T01:45:32;11.80;;;5.50;;
68025;SDS011;54819;48.030;14.710;2023-03-23T01:48:08;13.80;;;6.10;;
68025;SDS011;54819;48.030;14.710;2023-03-23T01:51:06;10.10;;;5.20;;
68025;SDS011;54819;48.030;14.710;2023-03-23T01:56:26;9.20;;;4.10;;
68025;SDS011;54819;48.030;14.710;2023-03-23T01:58:58;11.50;;;5.00;;
68025;SDS011;54819;48.030;14.710;2023-03-23T02:01:25;15.30;;;5.50;;
68025;SDS011;54819;48.030;14.710;2023-03-23T02:03:54;10.00;;;4.00;;
68025;SDS011;54819;48.030;14.710;2023-03-23T02:06:21;9.50;;;3.90;;
68025;SDS011;54819;48.030;14.710;2023-03-23T02:09:01;8.60;;;3.00;;
68025;SDS011;54819;48.030;14.710;2023-03-23T02:11:28;6.40;;;3.20;;
68025;SDS011;54819;48.030;14.710;2023-03-23T02:13:53;6.10;;;2.50;;
68025;SDS011;54819;48.030;14.710;2023-03-23T02:16:47;12.80;;;3.70;;
68025;SDS011;54819;48.030;14.710;2023-03-23T02:36:58;11.90;;;3.70;;
68025;SDS011;54819;48.030;14.710;2023-03-23T02:42:05;7.60;;;2.70;;
68025;SDS011;54819;48.030;14.710;2023-03-23T02:44:35;5.90;;;2.20;;
68025;SDS011;54819;48.030;14.710;2023-03-23T02:47:07;3.50;;;1.90;;
68025;SDS011;54819;48.030;14.710;2023-03-23T02:49:37;4.30;;;2.10;;
68025;SDS011;54819;48.030;14.710;2023-03-23T02:52:12;8.20;;;2.20;;
68025;SDS011;54819;48.030;14.710;2023-03-23T02:54:45;3.90;;;1.70;;
68025;SDS011;54819;48.030;14.710;2023-03-23T02:57:13;4.90;;;1.90;;
68025;SDS011;54819;48.030;14.710;2023-03-23T02:59:41;4.40;;;1.90;;
68025;SDS011;54819;48.030;14.710;2023-03-23T03:02:28;3.50;;;1.90;;
68025;SDS011;54819;48.030;14.710;2023-03-23T03:05:12;6.60;;;2.00;;
68025;SDS011;54819;48.030;14.710;2023-03-23T03:11:12;4.90;;;1.80;;
68025;SDS011;54819;48.030;14.710;2023-03-23T03:21:52;5.80;;;2.50;;
68025;SDS011;54819;48.030;14.710;2023-03-23T03:24:29;6.20;;;2.00;;
68025;SDS011;54819;48.030;14.710;2023-03-23T03:26:57;4.90;;;2.10;;
68025;SDS011;54819;48.030;14.710;2023-03-23T03:29:34;5.20;;;2.40;;
68025;SDS011;54819;48.030;14.710;2023-03-23T03:32:04;3.40;;;1.90;;
68025;SDS011;54819;48.030;14.710;2023-03-23T03:34:33;7.30;;;3.30;;
68025;SDS011;54819;48.030;14.710;2023-03-23T03:39:34;11.40;;;5.10;;
68025;SDS011;54819;48.030;14.710;2023-03-23T03:42:02;14.90;;;5.20;;
68025;SDS011;54819;48.030;14.710;2023-03-23T03:44:31;9.20;;;4.40;;
68025;SDS011;54819;48.030;14.710;2023-03-23T03:46:57;10.60;;;4.50;;
68025;SDS011;54819;48.030;14.710;2023-03-23T03:49:23;7.00;;;3.30;;
68025;SDS011;54819;48.030;14.710;2023-03-23T03:51:49;6.70;;;3.40;;
68025;SDS011;54819;48.030;14.710;2023-03-23T03:54:19;11.20;;;5.40;;
68025;SDS011;54819;48.030;14.710;2023-03-23T03:56:44;10.20;;;5.10;;
68025;SDS011;54819;48.030;14.710;2023-03-23T03:59:36;6.30;;;3.00;;
68025;SDS011;54819;48.030;14.710;2023-03-23T04:02:20;12.00;;;5.50;;
68025;SDS011;54819;48.030;14.710;2023-03-23T04:04:49;12.20;;;6.20;;
68025;SDS011;54819;48.030;14.710;2023-03-23T04:07:17;10.60;;;5.60;;
68025;SDS011;54819;48.030;14.710;2023-03-23T04:09:45;9.00;;;4.50;;
68025;SDS011;54819;48.030;14.710;2023-03-23T04:12:15;11.60;;;5.50;;
68025;SDS011;54819;48.030;14.710;2023-03-23T04:15:07;12.30;;;6.20;;
68025;SDS011;54819;48.030;14.710;2023-03-23T04:17:34;11.10;;;5.90;;
68025;SDS011;54819;48.030;14.710;2023-03-23T04:20:02;10.30;;;4.60;;
68025;SDS011;54819;48.030;14.710;2023-03-23T04:22:47;11.60;;;4.70;;
68025;SDS011;54819;48.030;14.710;2023-03-23T04:25:18;9.40;;;4.80;;
68025;SDS011;54819;48.030;14.710;2023-03-23T04:27:50;6.40;;;3.50;;
68025;SDS011;54819;48.030;14.710;2023-03-23T04:30:28;8.40;;;3.50;;
68025;SDS011;54819;48.030;14.710;2023-03-23T04:33:00;10.00;;;3.70;;
68025;SDS011;54819;48.030;14.710;2023-03-23T04:35:28;7.90;;;4.40;;
68025;SDS011;54819;48.030;14.710;2023-03-23T04:38:05;13.40;;;5.20;;
68025;SDS011;54819;48.030;14.710;2023-03-23T04:40:36;10.70;;;3.60;;
68025;SDS011;54819;48.030;14.710;2023-03-23T04:43:11;8.50;;;3.90;;
68025;SDS011;54819;48.030;14.710;2023-03-23T04:45:57;10.50;;;5.40;;
68025;SDS011;54819;48.030;14.710;2023-03-23T04:48:27;7.50;;;3.90;;
68025;SDS011;54819;48.030;14.710;2023-03-23T04:51:15;8.40;;;4.40;;
68025;SDS011;54819;48.030;14.710;2023-03-23T04:53:41;8.10;;;3.70;;
68025;SDS011;54819;48.030;14.710;2023-03-23T04:56:07;10.60;;;4.30;;
68025;SDS011;54819;48.030;14.710;2023-03-23T04:58:37;10.30;;;4.70;;
68025;SDS011;54819;48.030;14.710;2023-03-23T05:01:24;12.60;;;4.90;;
68025;SDS011;54819;48.030;14.710;2023-03-23T05:04:13;12.70;;;5.70;;
68025;SDS011;54819;48.030;14.710;2023-03-23T05:06:42;9.80;;;4.50;;
68025;SDS011;54819;48.030;14.710;2023-03-23T05:09:15;7.70;;;3.70;;
68025;SDS011;54819;48.030;14.710;2023-03-23T05:11:41;8.20;;;3.70;;
68025;SDS011;54819;48.030;14.710;2023-03-23T05:14:07;6.50;;;3.00;;
68025;SDS011;54819;48.030;14.710;2023-03-23T05:16:33;6.30;;;3.10;;
68025;SDS011;54819;48.030;14.710;2023-03-23T05:19:02;8.90;;;3.20;;
68025;SDS011;54819;48.030;14.710;2023-03-23T05:21:28;7.30;;;3.60;;
68025;SDS011;54819;48.030;14.710;2023-03-23T05:23:56;6.30;;;3.40;;
68025;SDS011;54819;48.030;14.710;2023-03-23T05:26:22;7.50;;;3.80;;
68025;SDS011;54819;48.030;14.710;2023-03-23T05:28:56;8.80;;;3.90;;
68025;SDS011;54819;48.030;14.710;2023-03-23T05:31:29;9.20;;;3.60;;
68025;SDS011;54819;48.030;14.710;2023-03-23T05:33:55;7.90;;;3.60;;
68025;SDS011;54819;48.030;14.710;2023-03-23T05:36:33;5.90;;;3.10;;
68025;SDS011;54819;48.030;14.710;2023-03-23T05:39:36;7.00;;;3.00;;
68025;SDS011;54819;48.030;14.710;2023-03-23T05:42:27;7.70;;;2.50;;
68025;SDS011;54819;48.030;14.710;2023-03-23T05:45:05;4.70;;;2.40;;
68025;SDS011;54819;48.030;14.710;2023-03-23T05:47:32;5.20;;;2.40;;
68025;SDS011;54819;48.030;14.710;2023-03-23T05:50:03;4.50;;;2.30;;
68025;SDS011;54819;48.030;14.710;2023-03-23T05:52:33;7.50;;;2.90;;
68025;SDS011;54819;48.030;14.710;2023-03-23T05:55:02;25.10;;;9.90;;
68025;SDS011;54819;48.030;14.710;2023-03-23T06:00:03;6.90;;;3.10;;
68025;SDS011;54819;48.030;14.710;2023-03-23T06:02:38;5.60;;;2.40;;
68025;SDS011;54819;48.030;14.710;2023-03-23T06:05:05;5.20;;;2.50;;
68025;SDS011;54819;48.030;14.710;2023-03-23T06:07:33;3.70;;;2.30;;
68025;SDS011;54819;48.030;14.710;2023-03-23T06:10:01;4.40;;;2.10;;
68025;SDS011;54819;48.030;14.710;2023-03-23T06:12:39;6.50;;;2.40;;
68025;SDS011;54819;48.030;14.710;2023-03-23T06:15:31;5.10;;;2.50;;
68025;SDS011;54819;48.030;14.710;2023-03-23T06:18:09;4.50;;;2.20;;
68025;SDS011;54819;48.030;14.710;2023-03-23T06:20:46;3.70;;;2.00;;
68025;SDS011;54819;48.030;14.710;2023-03-23T06:23:32;4.10;;;2.10;;
68025;SDS011;54819;48.030;14.710;2023-03-23T06:26:03;4.20;;;2.50;;
68025;SDS011;54819;48.030;14.710;2023-03-23T06:28:31;15.40;;;6.60;;
68025;SDS011;54819;48.030;14.710;2023-03-23T06:31:03;22.30;;;9.20;;
68025;SDS011;54819;48.030;14.710;2023-03-23T06:33:36;9.90;;;3.50;;
68025;SDS011;54819;48.030;14.710;2023-03-23T06:36:22;3.90;;;2.50;;
68025;SDS011;54819;48.030;14.710;2023-03-23T06:39:02;6.10;;;2.50;;
68025;SDS011;54819;48.030;14.710;2023-03-23T06:41:41;5.90;;;2.50;;
68025;SDS011;54819;48.030;14.710;2023-03-23T06:44:07;8.20;;;3.00;;
68025;SDS011;54819;48.030;14.710;2023-03-23T06:46:33;5.80;;;2.60;;
68025;SDS011;54819;48.030;14.710;2023-03-23T06:49:20;6.80;;;3.20;;
68025;SDS011;54819;48.030;14.710;2023-03-23T06:52:02;9.00;;;2.80;;
68025;SDS011;54819;48.030;14.710;2023-03-23T06:54:29;5.40;;;2.70;;
68025;SDS011;54819;48.030;14.710;2023-03-23T06:56:55;4.60;;;2.10;;
68025;SDS011;54819;48.030;14.710;2023-03-23T06:59:21;4.10;;;1.90;;
68025;SDS011;54819;48.030;14.710;2023-03-23T07:01:47;4.30;;;2.20;;
68025;SDS011;54819;48.030;14.710;2023-03-23T07:04:14;7.40;;;3.40;;
68025;SDS011;54819;48.030;14.710;2023-03-23T07:07:10;15.60;;;5.00;;
68025;SDS011;54819;48.030;14.710;2023-03-23T07:09:47;12.10;;;4.50;;
68025;SDS011;54819;48.030;14.710;2023-03-23T07:12:14;9.40;;;5.00;;
68025;SDS011;54819;48.030;14.710;2023-03-23T07:14:44;9.70;;;5.10;;
68025;SDS011;54819;48.030;14.710;2023-03-23T07:17:11;10.10;;;4.40;;
68025;SDS011;54819;48.030;14.710;2023-03-23T07:19:40;9.50;;;5.20;;
68025;SDS011;54819;48.030;14.710;2023-03-23T07:22:09;13.80;;;5.20;;
68025;SDS011;54819;48.030;14.710;2023-03-23T07:24:36;13.70;;;5.90;;
68025;SDS011;54819;48.030;14.710;2023-03-23T07:27:16;12.20;;;5.80;;
68025;SDS011;54819;48.030;14.710;2023-03-23T07:29:42;11.80;;;5.90;;
68025;SDS011;54819;48.030;14.710;2023-03-23T07:32:15;10.50;;;5.10;;
68025;SDS011;54819;48.030;14.710;2023-03-23T07:34:41;16.30;;;6.10;;
68025;SDS011;54819;48.030;14.710;2023-03-23T07:37:24;14.00;;;6.50;;
68025;SDS011;54819;48.030;14.710;2023-03-23T07:39:50;13.10;;;6.30;;
68025;SDS011;54819;48.030;14.710;2023-03-23T07:42:16;15.50;;;6.40;;
68025;SDS011;54819;48.030;14.710;2023-03-23T07:45:02;12.80;;;6.00;;
68025;SDS011;54819;48.030;14.710;2023-03-23T07:47:28;10.00;;;5.70;;
68025;SDS011;54819;48.030;14.710;2023-03-23T07:49:54;11.30;;;5.50;;
68025;SDS011;54819;48.030;14.710;2023-03-23T07:52:40;13.50;;;5.60;;
68025;SDS011;54819;48.030;14.710;2023-03-23T07:55:09;13.00;;;5.50;;
68025;SDS011;54819;48.030;14.710;2023-03-23T07:58:21;23.70;;;7.50;;
68025;SDS011;54819;48.030;14.710;2023-03-23T08:00:49;29.50;;;7.90;;
68025;SDS011;54819;48.030;14.710;2023-03-23T08:03:17;11.00;;;6.00;;
68025;SDS011;54819;48.030;14.710;2023-03-23T08:06:13;11.70;;;5.40;;
68025;SDS011;54819;48.030;14.710;2023-03-23T08:08:52;13.60;;;5.00;;
68025;SDS011;54819;48.030;14.710;2023-03-23T08:11:37;12.60;;;5.20;;
68025;SDS011;54819;48.030;14.710;2023-03-23T08:14:39;8.80;;;4.80;;
68025;SDS011;54819;48.030;14.710;2023-03-23T08:17:33;8.00;;;4.60;;
68025;SDS011;54819;48.030;14.710;2023-03-23T08:20:38;11.20;;;4.80;;
68025;SDS011;54819;48.030;14.710;2023-03-23T08:23:14;9.50;;;4.60;;
68025;SDS011;54819;48.030;14.710;2023-03-23T08:25:43;9.70;;;4.10;;
68025;SDS011;54819;48.030;14.710;2023-03-23T08:28:26;9.30;;;4.90;;
68025;SDS011;54819;48.030;14.710;2023-03-23T08:31:12;8.70;;;4.60;;
68025;SDS011;54819;48.030;14.710;2023-03-23T08:34:12;10.70;;;4.70;;
68025;SDS011;54819;48.030;14.710;2023-03-23T08:37:04;10.40;;;4.30;;
68025;SDS011;54819;48.030;14.710;2023-03-23T08:39:54;8.30;;;4.40;;
68025;SDS011;54819;48.030;14.710;2023-03-23T08:42:37;8.30;;;4.20;;
68025;SDS011;54819;48.030;14.710;2023-03-23T08:45:07;8.10;;;3.80;;
68025;SDS011;54819;48.030;14.710;2023-03-23T08:47:59;7.10;;;3.90;;
68025;SDS011;54819;48.030;14.710;2023-03-23T08:50:49;8.80;;;4.60;;
68025;SDS011;54819;48.030;14.710;2023-03-23T08:53:51;8.60;;;4.30;;
68025;SDS011;54819;48.030;14.710;2023-03-23T08:56:43;12.50;;;4.30;;
68025;SDS011;54819;48.030;14.710;2023-03-23T08:59:28;13.00;;;4.90;;
68025;SDS011;54819;48.030;14.710;2023-03-23T09:02:05;9.70;;;3.90;;
68025;SDS011;54819;48.030;14.710;2023-03-23T09:04:47;8.40;;;3.30;;
68025;SDS011;54819;48.030;14.710;2023-03-23T09:07:40;7.30;;;4.00;;
68025;SDS011;54819;48.030;14.710;2023-03-23T09:10:08;14.20;;;6.40;;
68025;SDS011;54819;48.030;14.710;2023-03-23T09:12:35;14.70;;;7.30;;
68025;SDS011;54819;48.030;14.710;2023-03-23T09:15:04;15.90;;;7.40;;
68025;SDS011;54819;48.030;14.710;2023-03-23T09:17:44;11.20;;;6.80;;
68025;SDS011;54819;48.030;14.710;2023-03-23T09:20:14;13.00;;;6.90;;
68025;SDS011;54819;48.030;14.710;2023-03-23T09:22:43;16.50;;;7.00;;
68025;SDS011;54819;48.030;14.710;2023-03-23T09:25:13;14.20;;;6.80;;
68025;SDS011;54819;48.030;14.710;2023-03-23T09:27:42;14.40;;;7.00;;
68025;SDS011;54819;48.030;14.710;2023-03-23T09:30:12;19.30;;;7.30;;
68025;SDS011;54819;48.030;14.710;2023-03-23T09:32:40;12.50;;;7.00;;
68025;SDS011;54819;48.030;14.710;2023-03-23T09:35:09;14.70;;;7.20;;
68025;SDS011;54819;48.030;14.710;2023-03-23T09:37:39;14.10;;;7.00;;
68025;SDS011;54819;48.030;14.710;2023-03-23T09:40:10;13.50;;;7.50;;
68025;SDS011;54819;48.030;14.710;2023-03-23T09:43:21;14.60;;;7.70;;
68025;SDS011;54819;48.030;14.710;2023-03-23T09:49:01;14.90;;;8.90;;
68025;SDS011;54819;48.030;14.710;2023-03-23T09:51:56;17.60;;;8.80;;
68025;SDS011;54819;48.030;14.710;2023-03-23T09:54:38;15.30;;;8.30;;
68025;SDS011;54819;48.030;14.710;2023-03-23T09:57:31;14.90;;;8.20;;
68025;SDS011;54819;48.030;14.710;2023-03-23T10:02:52;13.30;;;6.80;;
68025;SDS011;54819;48.030;14.710;2023-03-23T10:05:39;13.10;;;6.80;;
68025;SDS011;54819;48.030;14.710;2023-03-23T10:08:15;13.70;;;6.20;;
68025;SDS011;54819;48.030;14.710;2023-03-23T10:11:04;10.60;;;6.50;;
68025;SDS011;54819;48.030;14.710;2023-03-23T10:16:34;11.30;;;6.10;;
68025;SDS011;54819;48.030;14.710;2023-03-23T10:21:52;11.10;;;6.00;;
68025;SDS011;54819;48.030;14.710;2023-03-23T10:24:28;13.40;;;5.50;;
68025;SDS011;54819;48.030;14.710;2023-03-23T10:27:47;12.30;;;6.00;;
68025;SDS011;54819;48.030;14.710;2023-03-23T10:30:16;12.00;;;5.70;;
68025;SDS011;54819;48.030;14.710;2023-03-23T10:35:39;15.30;;;6.20;;
68025;SDS011;54819;48.030;14.710;2023-03-23T10:38:19;12.00;;;6.50;;
68025;SDS011;54819;48.030;14.710;2023-03-23T10:41:19;13.00;;;6.30;;
68025;SDS011;54819;48.030;14.710;2023-03-23T10:43:46;15.60;;;6.10;;
68025;SDS011;54819;48.030;14.710;2023-03-23T10:46:22;13.70;;;5.60;;
68025;SDS011;54819;48.030;14.710;2023-03-23T10:51:41;10.40;;;5.40;;
68025;SDS011;54819;48.030;14.710;2023-03-23T10:54:10;12.00;;;5.30;;
68025;SDS011;54819;48.030;14.710;2023-03-23T10:56:41;11.50;;;5.60;;
68025;SDS011;54819;48.030;14.710;2023-03-23T10:59:26;12.90;;;5.50;;
68025;SDS011;54819;48.030;14.710;2023-03-23T11:01:56;11.30;;;5.50;;
68025;SDS011;54819;48.030;14.710;2023-03-23T11:04:25;12.10;;;5.90;;
68025;SDS011;54819;48.030;14.710;2023-03-23T11:06:57;11.90;;;5.60;;
68025;SDS011;54819;48.030;14.710;2023-03-23T11:09:36;13.00;;;6.40;;
68025;SDS011;54819;48.030;14.710;2023-03-23T11:12:03;15.10;;;6.20;;
68025;SDS011;54819;48.030;14.710;2023-03-23T11:14:34;13.50;;;5.90;;
68025;SDS011;54819;48.030;14.710;2023-03-23T11:17:05;12.20;;;5.30;;
68025;SDS011;54819;48.030;14.710;2023-03-23T11:19:46;10.30;;;5.30;;
68025;SDS011;54819;48.030;14.710;2023-03-23T11:22:18;11.30;;;4.80;;
68025;SDS011;54819;48.030;14.710;2023-03-23T11:24:53;18.40;;;5.20;;
68025;SDS011;54819;48.030;14.710;2023-03-23T11:27:22;10.80;;;4.70;;
68025;SDS011;54819;48.030;14.710;2023-03-23T11:29:53;8.50;;;3.90;;
68025;SDS011;54819;48.030;14.710;2023-03-23T11:32:27;10.10;;;3.70;;
68025;SDS011;54819;48.030;14.710;2023-03-23T11:34:58;9.80;;;3.70;;
68025;SDS011;54819;48.030;14.710;2023-03-23T11:37:41;11.00;;;3.90;;
68025;SDS011;54819;48.030;14.710;2023-03-23T11:42:41;9.70;;;3.40;;
68025;SDS011;54819;48.030;14.710;2023-03-23T11:48:28;8.10;;;3.90;;
68025;SDS011;54819;48.030;14.710;2023-03-23T11:54:04;11.40;;;4.00;;
68025;SDS011;54819;48.030;14.710;2023-03-23T11:56:39;8.20;;;3.60;;
68025;SDS011;54819;48.030;14.710;2023-03-23T11:59:12;6.70;;;3.60;;
68025;SDS011;54819;48.030;14.710;2023-03-23T12:16:42;11.00;;;3.70;;
68025;SDS011;54819;48.030;14.710;2023-03-23T12:19:39;6.40;;;2.90;;
68025;SDS011;54819;48.030;14.710;2023-03-23T12:27:41;6.50;;;2.40;;
68025;SDS011;54819;48.030;14.710;2023-03-23T12:44:59;6.50;;;2.60;;
68025;SDS011;54819;48.030;14.710;2023-03-23T12:47:45;6.30;;;2.50;;
68025;SDS011;54819;48.030;14.710;2023-03-23T12:53:12;6.30;;;2.20;;
68025;SDS011;54819;48.030;14.710;2023-03-23T12:55:53;5.70;;;2.30;;
68025;SDS011;54819;48.030;14.710;2023-03-23T12:58:37;6.80;;;2.60;;
68025;SDS011;54819;48.030;14.710;2023-03-23T13:01:22;9.70;;;3.20;;
68025;SDS011;54819;48.030;14.710;2023-03-23T13:03:58;7.00;;;3.00;;
68025;SDS011;54819;48.030;14.710;2023-03-23T13:11:59;5.10;;;2.40;;
68025;SDS011;54819;48.030;14.710;2023-03-23T13:14:46;8.40;;;2.30;;
68025;SDS011;54819;48.030;14.710;2023-03-23T13:17:40;6.50;;;2.70;;
68025;SDS011;54819;48.030;14.710;2023-03-23T13:20:45;9.00;;;2.80;;
68025;SDS011;54819;48.030;14.710;2023-03-23T13:23:40;7.80;;;3.00;;
68025;SDS011;54819;48.030;14.710;2023-03-23T13:26:12;9.40;;;2.80;;
68025;SDS011;54819;48.030;14.710;2023-03-23T13:28:57;8.70;;;3.70;;
68025;SDS011;54819;48.030;14.710;2023-03-23T13:34:16;8.30;;;3.40;;
68025;SDS011;54819;48.030;14.710;2023-03-23T13:39:54;5.90;;;3.00;;
68025;SDS011;54819;48.030;14.710;2023-03-23T13:42:31;7.80;;;2.70;;
68025;SDS011;54819;48.030;14.710;2023-03-23T13:56:18;10.40;;;3.90;;
68025;SDS011;54819;48.030;14.710;2023-03-23T13:58:49;7.40;;;3.30;;
68025;SDS011;54819;48.030;14.710;2023-03-23T14:01:34;14.90;;;3.50;;
68025;SDS011;54819;48.030;14.710;2023-03-23T14:04:13;12.70;;;4.70;;
68025;SDS011;54819;48.030;14.710;2023-03-23T14:06:44;9.10;;;4.20;;
68025;SDS011;54819;48.030;14.710;2023-03-23T14:09:24;9.10;;;4.60;;
68025;SDS011;54819;48.030;14.710;2023-03-23T14:11:58;11.10;;;4.40;;
68025;SDS011;54819;48.030;14.710;2023-03-23T14:14:40;12.20;;;4.70;;
68025;SDS011;54819;48.030;14.710;2023-03-23T14:17:22;10.20;;;4.50;;
68025;SDS011;54819;48.030;14.710;2023-03-23T14:19:56;14.10;;;5.50;;
68025;SDS011;54819;48.030;14.710;2023-03-23T14:22:36;13.10;;;4.90;;
68025;SDS011;54819;48.030;14.710;2023-03-23T14:25:16;10.90;;;5.20;;
68025;SDS011;54819;48.030;14.710;2023-03-23T14:27:44;12.00;;;4.90;;
68025;SDS011;54819;48.030;14.710;2023-03-23T14:30:22;14.10;;;5.10;;
68025;SDS011;54819;48.030;14.710;2023-03-23T14:33:01;13.20;;;6.10;;
68025;SDS011;54819;48.030;14.710;2023-03-23T14:35:36;12.10;;;5.80;;
68025;SDS011;54819;48.030;14.710;2023-03-23T14:38:04;9.80;;;4.70;;
68025;SDS011;54819;48.030;14.710;2023-03-23T14:40:33;11.10;;;4.80;;
68025;SDS011;54819;48.030;14.710;2023-03-23T14:42:59;11.50;;;5.10;;
68025;SDS011;54819;48.030;14.710;2023-03-23T14:45:26;12.30;;;4.60;;
68025;SDS011;54819;48.030;14.710;2023-03-23T14:48:00;12.40;;;5.00;;
68025;SDS011;54819;48.030;14.710;2023-03-23T14:50:40;15.60;;;5.60;;
68025;SDS011;54819;48.030;14.710;2023-03-23T14:53:16;12.70;;;5.80;;
68025;SDS011;54819;48.030;14.710;2023-03-23T14:55:48;12.80;;;5.90;;
68025;SDS011;54819;48.030;14.710;2023-03-23T14:58:17;13.00;;;5.90;;
68025;SDS011;54819;48.030;14.710;2023-03-23T15:01:09;17.80;;;6.70;;
68025;SDS011;54819;48.030;14.710;2023-03-23T15:03:53;12.90;;;5.90;;
68025;SDS011;54819;48.030;14.710;2023-03-23T15:06:25;17.00;;;7.10;;
68025;SDS011;54819;48.030;14.710;2023-03-23T15:08:57;16.40;;;6.20;;
68025;SDS011;54819;48.030;14.710;2023-03-23T15:11:34;14.60;;;5.50;;
68025;SDS011;54819;48.030;14.710;2023-03-23T15:14:13;17.90;;;6.80;;
68025;SDS011;54819;48.030;14.710;2023-03-23T15:16:49;13.40;;;6.30;;
68025;SDS011;54819;48.030;14.710;2023-03-23T15:19:26;15.60;;;6.60;;
68025;SDS011;54819;48.030;14.710;2023-03-23T15:22:05;17.50;;;7.50;;
68025;SDS011;54819;48.030;14.710;2023-03-23T15:24:45;16.20;;;7.10;;
68025;SDS011;54819;48.030;14.710;2023-03-23T15:27:23;15.40;;;6.50;;
68025;SDS011;54819;48.030;14.710;2023-03-23T15:29:53;14.50;;;7.00;;
68025;SDS011;54819;48.030;14.710;2023-03-23T15:32:25;14.40;;;6.30;;
68025;SDS011;54819;48.030;14.710;2023-03-23T15:34:56;17.50;;;7.40;;
68025;SDS011;54819;48.030;14.710;2023-03-23T15:37:32;16.70;;;7.10;;
68025;SDS011;54819;48.030;14.710;2023-03-23T15:39:59;22.50;;;7.30;;
68025;SDS011;54819;48.030;14.710;2023-03-23T15:42:31;19.80;;;7.40;;
68025;SDS011;54819;48.030;14.710;2023-03-23T15:50:20;19.00;;;7.10;;
68025;SDS011;54819;48.030;14.710;2023-03-23T15:52:58;15.00;;;5.80;;
68025;SDS011;54819;48.030;14.710;2023-03-23T15:55:36;15.60;;;6.60;;
68025;SDS011;54819;48.030;14.710;2023-03-23T15:58:13;18.30;;;6.90;;
68025;SDS011;54819;48.030;14.710;2023-03-23T16:00:41;16.10;;;6.90;;
68025;SDS011;54819;48.030;14.710;2023-03-23T16:03:18;18.30;;;7.00;;
68025;SDS011;54819;48.030;14.710;2023-03-23T16:05:50;16.80;;;6.90;;
68025;SDS011;54819;48.030;14.710;2023-03-23T16:08:17;16.40;;;6.90;;
68025;SDS011;54819;48.030;14.710;2023-03-23T16:10:44;15.00;;;7.20;;
68025;SDS011;54819;48.030;14.710;2023-03-23T16:13:11;14.30;;;6.50;;
68025;SDS011;54819;48.030;14.710;2023-03-23T16:15:38;16.60;;;7.10;;
68025;SDS011;54819;48.030;14.710;2023-03-23T16:18:04;18.70;;;7.30;;
68025;SDS011;54819;48.030;14.710;2023-03-23T16:20:31;17.10;;;6.60;;
68025;SDS011;54819;48.030;14.710;2023-03-23T16:22:58;13.60;;;6.00;;
68025;SDS011;54819;48.030;14.710;2023-03-23T16:25:26;17.60;;;7.30;;
68025;SDS011;54819;48.030;14.710;2023-03-23T16:27:53;21.90;;;7.80;;
68025;SDS011;54819;48.030;14.710;2023-03-23T16:30:23;21.80;;;7.60;;
68025;SDS011;54819;48.030;14.710;2023-03-23T16:32:51;18.90;;;7.30;;
68025;SDS011;54819;48.030;14.710;2023-03-23T16:35:22;20.90;;;6.50;;
68025;SDS011;54819;48.030;14.710;2023-03-23T16:37:53;15.40;;;6.50;;
68025;SDS011;54819;48.030;14.710;2023-03-23T16:40:37;15.30;;;6.20;;
68025;SDS011;54819;48.030;14.710;2023-03-23T16:43:04;14.90;;;7.00;;
68025;SDS011;54819;48.030;14.710;2023-03-23T16:45:36;16.80;;;6.30;;
68025;SDS011;54819;48.030;14.710;2023-03-23T16:48:08;15.20;;;6.40;;
68025;SDS011;54819;48.030;14.710;2023-03-23T16:50:37;18.10;;;6.70;;
68025;SDS011;54819;48.030;14.710;2023-03-23T16:53:06;17.60;;;6.80;;
68025;SDS011;54819;48.030;14.710;2023-03-23T16:55:35;21.70;;;6.00;;
68025;SDS011;54819;48.030;14.710;2023-03-23T16:58:03;16.50;;;6.90;;
68025;SDS011;54819;48.030;14.710;2023-03-23T17:00:43;14.00;;;6.00;;
68025;SDS011;54819;48.030;14.710;2023-03-23T17:03:15;17.00;;;6.00;;
68025;SDS011;54819;48.030;14.710;2023-03-23T17:05:43;14.60;;;5.70;;
68025;SDS011;54819;48.030;14.710;2023-03-23T17:08:11;18.50;;;6.50;;
68025;SDS011;54819;48.030;14.710;2023-03-23T17:10:39;19.90;;;6.10;;
68025;SDS011;54819;48.030;14.710;2023-03-23T17:13:07;17.40;;;6.20;;
68025;SDS011;54819;48.030;14.710;2023-03-23T17:15:41;16.30;;;6.60;;
68025;SDS011;54819;48.030;14.710;2023-03-23T17:18:13;24.10;;;5.80;;
68025;SDS011;54819;48.030;14.710;2023-03-23T17:23:06;15.00;;;5.60;;
68025;SDS011;54819;48.030;14.710;2023-03-23T17:25:33;14.20;;;5.90;;